createdAt,value
2023-04-19T00:01:58.620Z,7.73
2023-04-19T00:05:01.981Z,7.60
2023-04-19T00:08:07.042Z,7.60
2023-04-19T00:11:10.673Z,7.72
2023-04-19T00:14:14.282Z,7.68
2023-04-19T00:17:18.043Z,7.97
2023-04-19T00:20:22.016Z,7.70
2023-04-19T00:23:26.469Z,7.69
2023-04-19T00:26:29.634Z,7.60
2023-04-19T00:29:33.491Z,7.65
2023-04-19T00:32:36.677Z,7.56
2023-04-19T00:35:40.713Z,7.66
2023-04-19T00:38:45.234Z,7.48
2023-04-19T00:41:48.407Z,7.37
2023-04-19T00:44:51.558Z,7.01
2023-04-19T00:47:55.043Z,6.88
2023-04-19T00:50:58.554Z,7.10
2023-04-19T00:54:03.681Z,6.93
2023-04-19T00:57:06.915Z,6.62
2023-04-19T01:00:11.028Z,6.94
2023-04-19T01:03:17.019Z,6.87
2023-04-19T01:06:20.982Z,7.01
2023-04-19T01:09:25.718Z,6.79
2023-04-19T01:12:28.833Z,6.96
2023-04-19T01:15:32.222Z,6.68
2023-04-19T01:18:37.841Z,6.86
2023-04-19T01:21:42.754Z,6.86
2023-04-19T01:24:47.314Z,6.85
2023-04-19T01:27:51.675Z,6.87
2023-04-19T01:30:54.852Z,6.79
2023-04-19T01:33:58.114Z,6.79
2023-04-19T01:37:01.309Z,6.74
2023-04-19T01:40:07.060Z,6.73
2023-04-19T01:43:15.245Z,6.82
2023-04-19T01:46:18.437Z,6.75
2023-04-19T01:49:21.724Z,6.78
2023-04-19T01:52:25.450Z,6.82
2023-04-19T01:55:34.968Z,6.84
2023-04-19T01:58:38.252Z,6.67
2023-04-19T02:01:41.470Z,6.70
2023-04-19T02:04:44.812Z,6.60
2023-04-19T02:07:47.926Z,6.68
2023-04-19T02:10:53.124Z,6.59
2023-04-19T02:13:56.273Z,6.55
2023-04-19T02:16:59.573Z,6.54
2023-04-19T02:20:04.287Z,6.87
2023-04-19T02:23:07.591Z,6.68
2023-04-19T02:26:13.017Z,6.79
2023-04-19T02:29:19.228Z,6.58
2023-04-19T02:32:22.488Z,6.49
2023-04-19T02:35:25.965Z,6.56
2023-04-19T02:38:29.121Z,6.57
2023-04-19T02:41:33.689Z,6.65
2023-04-19T02:44:38.281Z,6.41
2023-04-19T02:47:41.463Z,6.45
2023-04-19T02:50:44.665Z,6.42
2023-04-19T02:53:47.894Z,6.56
2023-04-19T02:56:53.379Z,6.39
2023-04-19T02:59:56.531Z,6.41
2023-04-19T03:03:00.751Z,6.42
2023-04-19T03:06:05.792Z,6.10
2023-04-19T03:09:09.823Z,6.15
2023-04-19T03:12:14.357Z,5.97
2023-04-19T03:15:19.527Z,5.94
2023-04-19T03:18:22.761Z,5.91
2023-04-19T03:21:29.034Z,5.99
2023-04-19T03:24:33.572Z,6.01
2023-04-19T03:27:52.138Z,5.93
2023-04-19T03:34:55.349Z,5.89
2023-04-19T03:37:58.606Z,5.96
2023-04-19T03:41:02.368Z,5.90
2023-04-19T03:44:10.859Z,5.90
2023-04-19T03:47:16.971Z,5.93
2023-04-19T03:50:24.534Z,5.97
2023-04-19T03:53:30.257Z,5.89
2023-04-19T03:56:33.500Z,5.96
2023-04-19T03:59:37.296Z,6.09
2023-04-19T04:02:40.985Z,5.92
2023-04-19T04:05:46.430Z,5.32
2023-04-19T04:08:49.577Z,5.65
2023-04-19T04:11:53.170Z,5.52
2023-04-19T04:14:56.713Z,5.49
2023-04-19T04:18:00.263Z,5.42
2023-04-19T04:21:05.070Z,5.45
2023-04-19T04:24:11.036Z,5.54
2023-04-19T04:27:26.349Z,5.53
2023-04-19T04:30:31.098Z,5.40
2023-04-19T04:33:35.990Z,5.53
2023-04-19T04:36:42.037Z,5.66
2023-04-19T04:39:45.625Z,5.73
2023-04-19T04:42:49.422Z,5.60
2023-04-19T04:45:55.578Z,5.74
2023-04-19T04:48:59.009Z,5.77
2023-04-19T04:52:03.613Z,5.84
2023-04-19T04:55:11.349Z,5.82
2023-04-19T04:58:20.438Z,5.84
2023-04-19T05:01:34.586Z,5.85
2023-04-19T05:04:38.430Z,5.89
2023-04-19T05:07:43.004Z,5.85
2023-04-19T05:10:46.110Z,5.77
2023-04-19T05:13:50.376Z,5.95
2023-04-19T05:16:53.699Z,6.07
2023-04-19T05:19:57.167Z,6.04
2023-04-19T05:23:03.362Z,6.10
2023-04-19T05:26:12.459Z,6.09
2023-04-19T05:29:16.377Z,6.25
2023-04-19T05:32:29.901Z,6.40
2023-04-19T05:35:35.635Z,6.26
2023-04-19T05:38:40.320Z,6.32
2023-04-19T05:41:43.643Z,6.41
2023-04-19T05:44:46.912Z,6.34
2023-04-19T05:47:50.563Z,6.50
2023-04-19T05:51:12.439Z,6.40
2023-04-19T05:54:55.197Z,6.61
2023-04-19T05:57:58.918Z,6.56
2023-04-19T06:01:04.387Z,6.73
2023-04-19T06:04:08.129Z,6.69
2023-04-19T06:07:26.748Z,6.63
2023-04-19T06:10:48.930Z,6.87
2023-04-19T06:13:56.300Z,6.73
2023-04-19T06:16:59.711Z,7.20
2023-04-19T06:20:06.302Z,7.35
2023-04-19T06:23:09.488Z,7.01
2023-04-19T06:26:13.936Z,6.91
2023-04-19T06:29:18.160Z,6.90
2023-04-19T06:32:21.460Z,6.98
2023-04-19T06:35:25.190Z,7.07
2023-04-19T06:38:28.315Z,7.10
2023-04-19T06:41:32.839Z,6.97
2023-04-19T06:44:36.259Z,7.12
2023-04-19T06:47:39.455Z,7.07
2023-04-19T06:50:42.646Z,7.14
2023-04-19T06:53:45.924Z,7.32
2023-04-19T06:56:51.266Z,7.35
2023-04-19T06:59:55.454Z,7.11
2023-04-19T07:02:59.858Z,7.37
2023-04-19T07:06:03.343Z,7.41
2023-04-19T07:09:08.017Z,7.40
2023-04-19T07:12:12.590Z,7.54
2023-04-19T07:15:15.968Z,7.70
2023-04-19T07:18:19.180Z,7.55
2023-04-19T07:21:24.771Z,7.83
2023-04-19T07:24:29.661Z,7.59
2023-04-19T07:27:34.184Z,7.68
2023-04-19T07:30:37.502Z,7.54
2023-04-19T07:33:40.677Z,7.90
2023-04-19T07:36:43.854Z,7.68
2023-04-19T07:39:47.099Z,7.71
2023-04-19T07:42:51.800Z,7.73
2023-04-19T07:45:55.391Z,8.06
2023-04-19T07:48:58.672Z,7.86
2023-04-19T07:52:02.503Z,8.03
2023-04-19T07:55:07.014Z,7.82
2023-04-19T07:58:11.894Z,7.87
2023-04-19T08:01:15.510Z,7.91
2023-04-19T08:04:20.591Z,7.98
2023-04-19T08:07:26.046Z,7.94
2023-04-19T08:10:34.710Z,7.99
2023-04-19T08:13:40.422Z,8.12
2023-04-19T08:17:19.526Z,8.01
2023-04-19T08:20:08.110Z,8.14
2023-04-19T08:23:21.578Z,8.06
2023-04-19T08:26:27.858Z,8.03
2023-04-19T08:29:33.489Z,7.99
2023-04-19T08:32:36.605Z,7.97
2023-04-19T08:35:40.909Z,8.06
2023-04-19T08:38:46.823Z,7.79
2023-04-19T08:42:06.977Z,7.65
2023-04-19T08:45:27.741Z,7.62
2023-04-19T08:48:35.802Z,7.68
2023-04-19T08:51:40.584Z,7.67
2023-04-19T08:54:44.240Z,7.66
2023-04-19T08:57:48.510Z,7.59
2023-04-19T09:00:53.211Z,7.62
2023-04-19T09:04:09.642Z,7.54
2023-04-19T09:07:26.030Z,7.38
2023-04-19T09:10:33.178Z,7.39
2023-04-19T09:13:38.227Z,7.27
2023-04-19T09:16:43.065Z,7.49
2023-04-19T09:19:47.828Z,7.14
2023-04-19T09:23:05.243Z,7.27
2023-04-19T09:26:22.829Z,7.42
2023-04-19T09:29:27.029Z,7.26
2023-04-19T09:34:57.510Z,7.23
2023-04-19T09:38:06.304Z,7.30
2023-04-19T09:41:10.574Z,7.38
2023-04-19T09:47:25.932Z,7.33
2023-04-19T09:50:31.701Z,7.43
2023-04-19T09:53:35.561Z,7.60
2023-04-19T09:56:39.156Z,7.66
2023-04-19T09:59:42.633Z,7.60
2023-04-19T10:02:48.709Z,7.24
2023-04-19T10:05:55.248Z,7.26
2023-04-19T10:09:01.120Z,7.49
2023-04-19T10:12:20.923Z,7.43
2023-04-19T10:15:42.893Z,7.40
2023-04-19T10:18:53.987Z,7.48
2023-04-19T10:21:58.896Z,7.47
2023-04-19T10:25:13.306Z,7.62
2023-04-19T10:28:17.606Z,7.84
2023-04-19T10:31:23.544Z,8.00
2023-04-19T10:34:38.643Z,7.96
2023-04-19T10:38:02.703Z,8.26
2023-04-19T10:41:13.583Z,8.60
2023-04-19T10:44:18.693Z,9.16
2023-04-19T10:47:42.338Z,9.31
2023-04-19T10:51:01.986Z,9.06
2023-04-19T10:54:07.981Z,9.02
2023-04-19T10:57:11.887Z,9.31
2023-04-19T11:00:22.264Z,9.92
2023-04-19T11:03:58.904Z,9.82
2023-04-19T11:07:04.453Z,9.66
2023-04-19T11:10:11.461Z,9.58
2023-04-19T11:13:14.886Z,9.71
2023-04-19T11:16:19.463Z,9.47
2023-04-19T11:19:23.270Z,9.87
2023-04-19T11:22:31.173Z,9.95
2023-04-19T11:25:36.299Z,10.15
2023-04-19T11:28:39.808Z,10.27
2023-04-19T11:31:46.209Z,10.75
2023-04-19T11:34:49.521Z,11.12
2023-04-19T11:37:54.867Z,10.77
2023-04-19T11:41:02.981Z,10.82
2023-04-19T11:44:06.201Z,11.08
2023-04-19T11:47:09.305Z,11.20
2023-04-19T11:50:31.987Z,11.10
2023-04-19T11:53:35.314Z,10.74
2023-04-19T11:56:58.869Z,10.93
2023-04-19T12:00:11.932Z,10.91
2023-04-19T12:03:25.449Z,11.43
2023-04-19T12:06:32.002Z,11.39
2023-04-19T12:09:36.807Z,11.64
2023-04-19T12:12:41.601Z,11.21
2023-04-19T12:15:45.833Z,11.43
2023-04-19T12:18:51.168Z,11.39
2023-04-19T12:21:54.580Z,11.29
2023-04-19T12:24:58.423Z,11.34
2023-04-19T12:28:04.569Z,10.98
2023-04-19T12:31:07.769Z,11.16
2023-04-19T12:34:11.413Z,11.92
2023-04-19T12:37:14.640Z,11.27
2023-04-19T12:40:17.968Z,11.39
2023-04-19T12:43:22.549Z,11.55
2023-04-19T12:46:25.936Z,11.36
2023-04-19T12:49:29.025Z,12.22
2023-04-19T12:52:32.247Z,11.75
2023-04-19T12:55:35.425Z,11.30
2023-04-19T12:58:39.912Z,11.47
2023-04-19T13:01:43.156Z,12.11
2023-04-19T13:04:46.472Z,11.30
2023-04-19T13:07:49.714Z,11.47
2023-04-19T13:10:53.600Z,11.79
2023-04-19T13:13:58.074Z,11.39
2023-04-19T13:17:01.540Z,11.17
2023-04-19T13:20:06.309Z,11.81
2023-04-19T13:23:09.534Z,11.42
2023-04-19T13:26:13.152Z,12.05
2023-04-19T13:29:17.592Z,11.53
2023-04-19T13:32:20.789Z,11.52
2023-04-19T13:35:24.355Z,11.68
2023-04-19T13:38:27.634Z,11.58
2023-04-19T13:41:30.844Z,11.36
2023-04-19T13:44:35.667Z,11.88
2023-04-19T13:47:38.926Z,11.43
2023-04-19T13:50:42.111Z,11.96
2023-04-19T13:53:45.546Z,11.31
2023-04-19T13:56:51.376Z,11.54
2023-04-19T13:59:56.560Z,11.43
2023-04-19T14:02:59.935Z,11.05
2023-04-19T14:06:03.318Z,11.21
2023-04-19T14:09:06.776Z,11.45
2023-04-19T14:12:10.972Z,12.02
2023-04-19T14:15:15.666Z,11.65
2023-04-19T14:18:18.857Z,11.58
2023-04-19T14:21:22.084Z,11.85
2023-04-19T14:24:25.297Z,10.81
2023-04-19T14:27:28.707Z,10.61
2023-04-19T14:30:33.315Z,10.49
2023-04-19T14:33:36.477Z,10.95
2023-04-19T14:36:39.744Z,11.06
2023-04-19T14:39:42.900Z,11.47
2023-04-19T14:42:46.044Z,11.10
2023-04-19T14:45:50.777Z,11.34
2023-04-19T14:48:54.020Z,11.29
2023-04-19T14:51:57.168Z,11.43
2023-04-19T14:55:01.106Z,11.37
2023-04-19T14:58:04.777Z,11.33
2023-04-19T15:01:18.336Z,10.65
2023-04-19T15:04:22.225Z,10.88
2023-04-19T15:07:26.163Z,11.01
2023-04-19T15:10:33.255Z,11.19
2023-04-19T15:13:36.447Z,11.07
2023-04-19T15:16:40.915Z,10.89
2023-04-19T15:19:46.808Z,10.95
2023-04-19T15:22:49.995Z,10.76
2023-04-19T15:25:53.340Z,10.90
2023-04-19T15:28:56.882Z,10.58
2023-04-19T15:34:55.094Z,10.18
2023-04-19T15:37:58.248Z,10.27
2023-04-19T15:41:02.028Z,10.06
2023-04-19T15:44:05.381Z,9.84
2023-04-19T15:47:08.725Z,9.86
2023-04-19T15:50:13.340Z,9.94
2023-04-19T15:53:16.644Z,10.25
2023-04-19T15:56:20.024Z,10.14
2023-04-19T15:59:23.274Z,10.04
2023-04-19T16:02:26.649Z,10.18
2023-04-19T16:05:31.964Z,10.12
2023-04-19T16:08:35.281Z,10.12
2023-04-19T16:11:39.091Z,10.33
2023-04-19T16:14:42.255Z,10.20
2023-04-19T16:17:45.781Z,10.26
2023-04-19T16:20:50.405Z,9.93
2023-04-19T16:23:54.091Z,9.91
2023-04-19T16:26:57.738Z,9.78
2023-04-19T16:30:00.957Z,9.87
2023-04-19T16:33:04.646Z,9.93
2023-04-19T16:36:11.228Z,10.01
2023-04-19T16:39:14.692Z,9.88
2023-04-19T16:42:18.302Z,9.85
2023-04-19T16:45:21.552Z,9.73
2023-04-19T16:48:24.753Z,9.55
2023-04-19T16:51:29.417Z,9.43
2023-04-19T16:54:32.483Z,9.59
2023-04-19T16:57:36.545Z,9.33
2023-04-19T17:00:40.118Z,9.44
2023-04-19T17:03:43.442Z,9.26
2023-04-19T17:06:47.993Z,9.37
2023-04-19T17:09:51.494Z,9.18
2023-04-19T17:12:55.446Z,9.19
2023-04-19T17:15:58.710Z,9.14
2023-04-19T17:19:02.256Z,9.05
2023-04-19T17:22:07.102Z,9.20
2023-04-19T17:25:10.727Z,8.87
2023-04-19T17:28:13.868Z,8.78
2023-04-19T17:31:17.034Z,8.63
2023-04-19T17:34:20.712Z,8.40
2023-04-19T17:37:27.342Z,8.29
2023-04-19T17:40:34.549Z,8.25
2023-04-19T17:43:37.762Z,8.20
2023-04-19T17:46:41.025Z,8.14
2023-04-19T17:49:46.611Z,8.13
2023-04-19T17:52:51.070Z,8.13
2023-04-19T17:55:54.397Z,8.01
2023-04-19T17:59:00.510Z,8.09
2023-04-19T18:02:04.100Z,8.01
2023-04-19T18:05:08.481Z,7.92
2023-04-19T18:08:13.725Z,7.87
2023-04-19T18:11:18.390Z,8.06
2023-04-19T18:14:21.895Z,7.72
2023-04-19T18:17:25.161Z,7.69
2023-04-19T18:20:28.574Z,7.76
2023-04-19T18:23:33.347Z,7.64
2023-04-19T18:26:40.083Z,7.60
2023-04-19T18:29:43.305Z,7.38
2023-04-19T18:32:47.632Z,7.31
2023-04-19T18:35:50.873Z,7.43
2023-04-19T18:38:55.939Z,7.01
2023-04-19T18:41:59.149Z,6.88
2023-04-19T18:45:04.033Z,7.16
2023-04-19T18:48:07.878Z,7.13
2023-04-19T18:51:11.108Z,7.10
2023-04-19T18:54:15.763Z,7.01
2023-04-19T18:57:23.555Z,6.91
2023-04-19T19:00:30.232Z,7.05
2023-04-19T19:06:39.577Z,6.89
2023-04-19T19:09:55.045Z,6.79
2023-04-19T19:12:59.443Z,6.66
2023-04-19T19:16:02.780Z,6.56
2023-04-19T19:19:08.752Z,6.79
2023-04-19T19:22:25.252Z,6.71
2023-04-19T19:25:34.788Z,6.67
2023-04-19T19:28:38.063Z,6.52
2023-04-19T19:31:41.283Z,6.56
2023-04-19T19:34:54.441Z,6.62
2023-04-19T19:37:59.296Z,6.49
2023-04-19T19:44:12.239Z,6.31
2023-04-19T19:47:18.301Z,6.19
2023-04-19T19:50:50.502Z,6.26
2023-04-19T19:53:45.847Z,6.17
2023-04-19T20:00:03.127Z,5.72
2023-04-19T20:03:35.622Z,5.75
2023-04-19T20:09:47.166Z,5.84
2023-04-19T20:12:52.174Z,5.82
2023-04-19T20:15:55.428Z,5.62
2023-04-19T20:18:59.416Z,5.62
2023-04-19T20:22:02.657Z,5.39
2023-04-19T20:25:06.628Z,5.59
2023-04-19T20:28:12.426Z,5.26
2023-04-19T20:31:15.830Z,5.08
2023-04-19T20:34:18.989Z,4.71
2023-04-19T20:37:24.051Z,5.34
2023-04-19T20:40:34.059Z,4.81
2023-04-19T20:43:38.813Z,5.34
2023-04-19T20:46:42.900Z,5.08
2023-04-19T20:49:46.065Z,5.57
2023-04-19T20:52:49.234Z,5.44
2023-04-19T20:55:52.483Z,5.42
2023-04-19T20:58:57.652Z,5.41
2023-04-19T21:02:01.064Z,5.16
2023-04-19T21:05:04.557Z,5.10
2023-04-19T21:08:07.868Z,5.25
2023-04-19T21:11:11.158Z,5.32
2023-04-19T21:14:15.745Z,5.04
2023-04-19T21:17:18.969Z,5.05
2023-04-19T21:20:22.216Z,4.89
2023-04-19T21:23:25.395Z,4.94
2023-04-19T21:26:28.650Z,5.17
2023-04-19T21:29:33.388Z,4.86
2023-04-19T21:34:55.261Z,4.87
2023-04-19T21:37:58.655Z,4.87
2023-04-19T21:41:01.830Z,5.07
2023-04-19T21:44:05.148Z,4.67
2023-04-19T21:47:08.544Z,4.20
2023-04-19T21:50:13.313Z,3.96
2023-04-19T21:53:16.565Z,3.71
2023-04-19T21:56:19.764Z,3.74
2023-04-19T21:59:22.860Z,3.43
2023-04-19T22:02:26.114Z,3.33
2023-04-19T22:05:30.888Z,3.42
2023-04-19T22:08:34.274Z,3.28
2023-04-19T22:11:37.514Z,3.33
2023-04-19T22:14:40.776Z,3.19
2023-04-19T22:17:44.357Z,3.35
2023-04-19T22:20:50.744Z,3.10
2023-04-19T22:23:54.508Z,2.99
2023-04-19T22:26:57.747Z,2.86
2023-04-19T22:30:00.863Z,2.81
2023-04-19T22:33:04.296Z,3.17
2023-04-19T22:36:09.892Z,2.86
2023-04-19T22:39:13.122Z,3.08
2023-04-19T22:42:16.307Z,2.80
2023-04-19T22:45:19.731Z,2.82
2023-04-19T22:48:22.874Z,2.69
2023-04-19T22:51:27.850Z,2.46
2023-04-19T22:54:30.950Z,2.56
2023-04-19T22:57:34.193Z,2.65
2023-04-19T23:00:38.023Z,2.56
2023-04-19T23:03:41.302Z,2.63
2023-04-19T23:06:48.554Z,3.06
2023-04-19T23:09:51.990Z,2.97
2023-04-19T23:12:56.246Z,2.95
2023-04-19T23:15:59.448Z,3.06
2023-04-19T23:19:02.978Z,2.78
2023-04-19T23:22:07.529Z,2.76
2023-04-19T23:25:11.610Z,2.50
2023-04-19T23:28:14.877Z,2.26
2023-04-19T23:31:18.149Z,2.21
2023-04-19T23:34:21.326Z,2.09
2023-04-19T23:37:26.768Z,2.21
2023-04-19T23:40:34.029Z,2.32
2023-04-19T23:43:37.171Z,2.10
2023-04-19T23:46:40.732Z,2.01
2023-04-19T23:49:43.914Z,1.95
2023-04-19T23:52:48.404Z,2.02
2023-04-19T23:55:51.549Z,1.86
2023-04-19T23:58:55.340Z,1.78
